createdAt,value
2018-07-08T00:01:40.787Z,22.30
2018-07-08T00:04:11.862Z,19.80
2018-07-08T00:06:43.325Z,25.93
2018-07-08T00:09:15.236Z,22.77
2018-07-08T00:11:46.819Z,26.13
2018-07-08T00:14:18.421Z,22.90
2018-07-08T00:16:50.115Z,22.83
2018-07-08T00:19:21.323Z,25.87
2018-07-08T00:21:53.007Z,25.97
2018-07-08T00:24:24.513Z,26.33
2018-07-08T00:26:55.666Z,24.43
2018-07-08T00:29:26.762Z,24.80
2018-07-08T00:31:57.761Z,24.47
2018-07-08T00:34:28.866Z,28.10
2018-07-08T00:36:59.750Z,25.87
2018-07-08T00:39:31.615Z,25.43
2018-07-08T00:42:02.552Z,26.37
2018-07-08T00:44:33.751Z,26.70
2018-07-08T00:47:05.095Z,27.30
2018-07-08T00:49:35.634Z,32.67
2018-07-08T00:52:06.758Z,32.20
2018-07-08T00:54:38.101Z,32.83
2018-07-08T00:57:09.034Z,31.47
2018-07-08T00:59:40.355Z,28.80
2018-07-08T01:02:10.559Z,31.27
2018-07-08T01:04:42.421Z,28.43
2018-07-08T01:07:13.752Z,28.77
2018-07-08T01:09:45.575Z,31.77
2018-07-08T01:12:16.775Z,26.43
2018-07-08T01:14:48.279Z,29.10
2018-07-08T01:17:19.429Z,29.70
2018-07-08T01:19:51.705Z,27.30
2018-07-08T01:22:23.316Z,24.20
2018-07-08T01:25:00.219Z,24.17
2018-07-08T01:27:31.300Z,25.67
2018-07-08T01:30:02.842Z,22.57
2018-07-08T01:32:34.376Z,21.23
2018-07-08T01:35:05.729Z,21.37
2018-07-08T01:37:37.036Z,25.53
2018-07-08T01:40:08.693Z,28.50
2018-07-08T01:42:39.850Z,25.07
2018-07-08T01:45:11.555Z,28.57
2018-07-08T01:47:42.757Z,25.90
2018-07-08T01:50:13.420Z,25.80
2018-07-08T01:52:45.646Z,26.17
2018-07-08T01:55:18.441Z,27.43
2018-07-08T01:57:49.993Z,25.37
2018-07-08T02:00:21.449Z,25.00
2018-07-08T02:02:52.963Z,32.30
2018-07-08T02:05:23.811Z,30.03
2018-07-08T02:07:55.128Z,32.10
2018-07-08T02:10:26.706Z,29.83
2018-07-08T02:12:58.173Z,34.90
2018-07-08T02:15:29.549Z,37.07
2018-07-08T02:18:00.669Z,37.77
2018-07-08T02:20:31.668Z,37.80
2018-07-08T02:23:03.012Z,38.50
2018-07-08T02:25:34.768Z,39.07
2018-07-08T02:28:06.540Z,38.07
2018-07-08T02:30:37.009Z,36.83
2018-07-08T02:33:08.443Z,34.03
2018-07-08T02:35:39.913Z,38.13
2018-07-08T02:38:11.132Z,40.13
2018-07-08T02:40:42.871Z,41.47
2018-07-08T02:43:14.116Z,40.40
2018-07-08T02:45:45.482Z,41.07
2018-07-08T02:48:17.253Z,39.50
2018-07-08T02:50:48.339Z,36.07
2018-07-08T02:53:19.803Z,34.73
2018-07-08T02:55:51.351Z,32.83
2018-07-08T02:58:21.835Z,31.90
2018-07-08T03:00:52.481Z,31.73
2018-07-08T03:03:22.699Z,28.07
2018-07-08T03:05:52.982Z,29.03
2018-07-08T03:08:23.941Z,30.07
2018-07-08T03:10:54.087Z,28.00
2018-07-08T03:13:24.262Z,31.17
2018-07-08T03:15:54.497Z,27.77
2018-07-08T03:18:24.684Z,30.20
2018-07-08T03:20:54.779Z,25.83
2018-07-08T03:23:25.051Z,26.10
2018-07-08T03:25:55.172Z,25.93
2018-07-08T03:28:25.503Z,24.73
2018-07-08T03:30:56.224Z,27.53
2018-07-08T03:33:26.595Z,24.50
2018-07-08T03:35:57.307Z,24.23
2018-07-08T03:38:27.803Z,26.20
2018-07-08T03:40:58.204Z,23.77
2018-07-08T03:43:28.744Z,28.67
2018-07-08T03:45:58.908Z,25.87
2018-07-08T03:48:29.244Z,25.60
2018-07-08T03:50:59.591Z,24.13
2018-07-08T03:53:29.853Z,25.80
2018-07-08T03:55:59.958Z,23.87
2018-07-08T03:58:30.265Z,27.73
2018-07-08T04:01:00.594Z,25.90
2018-07-08T04:03:31.023Z,26.57
2018-07-08T04:06:02.185Z,25.40
2018-07-08T04:08:33.437Z,23.33
2018-07-08T04:11:04.409Z,23.60
2018-07-08T04:13:35.008Z,23.77
2018-07-08T04:16:05.475Z,23.67
2018-07-08T04:18:36.319Z,23.30
2018-07-08T04:21:07.463Z,21.80
2018-07-08T04:23:38.493Z,23.57
2018-07-08T04:26:09.426Z,23.20
2018-07-08T04:28:40.932Z,22.70
2018-07-08T04:31:12.233Z,22.53
2018-07-08T04:33:43.496Z,22.30
2018-07-08T04:36:15.225Z,24.43
2018-07-08T04:38:46.355Z,26.33
2018-07-08T04:41:17.324Z,25.40
2018-07-08T04:43:48.467Z,27.50
2018-07-08T04:46:19.867Z,22.97
2018-07-08T04:48:51.014Z,21.13
2018-07-08T04:51:22.836Z,20.40
2018-07-08T04:53:53.637Z,19.73
2018-07-08T04:56:24.921Z,21.43
2018-07-08T04:58:56.612Z,20.60
2018-07-08T05:01:29.179Z,21.83
2018-07-08T05:04:00.630Z,21.23
2018-07-08T05:06:31.853Z,21.90
2018-07-08T05:09:02.870Z,20.17
2018-07-08T05:11:34.129Z,22.47
2018-07-08T05:14:05.770Z,22.37
2018-07-08T05:16:36.996Z,21.20
2018-07-08T05:19:09.444Z,21.60
2018-07-08T05:21:41.054Z,20.27
2018-07-08T05:24:12.455Z,21.70
2018-07-08T05:26:43.387Z,23.17
2018-07-08T05:29:15.083Z,23.23
2018-07-08T05:31:46.706Z,23.30
2018-07-08T05:34:18.231Z,22.20
2018-07-08T05:36:49.572Z,19.80
2018-07-08T05:39:21.032Z,17.60
2018-07-08T05:41:52.275Z,18.90
2018-07-08T05:44:23.427Z,19.33
2018-07-08T05:46:54.955Z,17.90
2018-07-08T05:49:26.571Z,17.60
2018-07-08T05:51:58.380Z,15.83
2018-07-08T05:54:29.668Z,15.13
2018-07-08T05:57:00.885Z,17.20
2018-07-08T05:59:32.806Z,14.90
2018-07-08T06:02:03.984Z,14.23
2018-07-08T06:04:34.937Z,13.77
2018-07-08T06:07:05.909Z,14.27
2018-07-08T06:09:36.994Z,13.13
2018-07-08T06:12:08.571Z,12.70
2018-07-08T06:14:39.830Z,13.57
2018-07-08T06:17:10.903Z,12.87
2018-07-08T06:19:41.602Z,13.30
2018-07-08T06:22:12.528Z,13.43
2018-07-08T06:24:44.039Z,12.10
2018-07-08T06:27:15.335Z,12.33
2018-07-08T06:29:46.892Z,12.03
2018-07-08T06:32:18.024Z,13.20
2018-07-08T06:34:48.239Z,14.87
2018-07-08T06:37:18.639Z,15.93
2018-07-08T06:39:49.088Z,15.63
2018-07-08T06:42:20.833Z,15.77
2018-07-08T06:44:51.447Z,15.17
2018-07-08T06:47:22.311Z,17.67
2018-07-08T06:49:52.730Z,17.07
2018-07-08T06:52:22.715Z,17.00
2018-07-08T06:54:52.705Z,17.70
2018-07-08T06:57:23.032Z,18.27
2018-07-08T06:59:53.527Z,17.47
2018-07-08T07:02:24.142Z,16.80
2018-07-08T07:04:54.768Z,16.80
2018-07-08T07:07:25.494Z,18.57
2018-07-08T07:09:56.507Z,16.70
2018-07-08T07:12:28.196Z,15.67
2018-07-08T07:14:59.366Z,16.13
2018-07-08T07:17:30.923Z,16.23
2018-07-08T07:20:01.928Z,15.80
2018-07-08T07:22:33.232Z,16.67
2018-07-08T07:25:04.559Z,13.60
2018-07-08T07:27:35.556Z,14.03
2018-07-08T07:30:06.611Z,13.53
2018-07-08T07:32:37.233Z,12.90
2018-07-08T07:35:08.984Z,13.03
2018-07-08T07:37:40.092Z,13.53
2018-07-08T07:40:11.501Z,14.27
2018-07-08T07:42:43.233Z,14.33
2018-07-08T07:45:14.599Z,13.77
2018-07-08T07:47:46.250Z,12.80
2018-07-08T07:50:17.422Z,11.53
2018-07-08T07:52:47.991Z,10.27
2018-07-08T07:55:19.337Z,10.60
2018-07-08T07:57:50.923Z,11.17
2018-07-08T08:00:22.390Z,10.73
2018-07-08T08:02:53.970Z,9.80
2018-07-08T08:05:25.937Z,9.90
2018-07-08T08:07:57.863Z,11.00
2018-07-08T08:10:30.537Z,11.13
2018-07-08T08:13:02.244Z,11.80
2018-07-08T08:15:34.053Z,11.33
2018-07-08T08:18:04.642Z,10.87
2018-07-08T08:20:36.178Z,10.13
2018-07-08T08:23:07.640Z,11.37
2018-07-08T08:25:38.816Z,10.93
2018-07-08T08:28:10.205Z,10.00
2018-07-08T08:30:41.751Z,9.90
2018-07-08T08:33:13.281Z,10.03
2018-07-08T08:35:44.929Z,9.80
2018-07-08T08:38:16.416Z,8.60
2018-07-08T08:40:47.533Z,9.70
2018-07-08T08:43:19.140Z,10.10
2018-07-08T08:45:50.408Z,9.60
2018-07-08T08:48:21.947Z,9.03
2018-07-08T08:50:53.776Z,9.97
2018-07-08T08:53:25.028Z,9.13
2018-07-08T08:56:05.076Z,10.17
2018-07-08T08:58:36.558Z,8.90
2018-07-08T09:01:07.761Z,8.57
2018-07-08T09:03:39.533Z,9.00
2018-07-08T09:06:09.968Z,9.03
2018-07-08T09:08:41.174Z,8.43
2018-07-08T09:11:12.130Z,8.33
2018-07-08T09:13:43.677Z,9.27
2018-07-08T09:16:15.214Z,8.50
2018-07-08T09:18:47.008Z,9.27
2018-07-08T09:21:18.341Z,8.30
2018-07-08T09:23:49.601Z,8.40
2018-07-08T09:26:21.714Z,8.37
2018-07-08T09:28:52.370Z,7.97
2018-07-08T09:31:23.236Z,8.93
2018-07-08T09:33:55.278Z,9.00
2018-07-08T09:36:26.252Z,9.27
2018-07-08T09:38:57.866Z,8.20
2018-07-08T09:41:29.456Z,8.23
2018-07-08T09:44:01.579Z,8.30
2018-07-08T09:46:32.922Z,10.63
2018-07-08T09:49:05.155Z,8.37
2018-07-08T09:51:35.368Z,7.87
2018-07-08T09:54:06.261Z,7.53
2018-07-08T09:56:37.634Z,8.03
2018-07-08T09:59:08.304Z,9.20
2018-07-08T10:01:43.701Z,8.20
2018-07-08T10:04:18.323Z,8.10
2018-07-08T10:06:49.484Z,6.87
2018-07-08T10:09:21.561Z,7.03
2018-07-08T10:11:52.003Z,7.10
2018-07-08T10:14:23.305Z,7.60
2018-07-08T10:16:54.451Z,7.30
2018-07-08T10:19:25.458Z,6.80
2018-07-08T10:21:55.596Z,7.90
2018-07-08T10:24:25.963Z,7.43
2018-07-08T10:27:12.760Z,7.70
2018-07-08T10:29:43.386Z,7.77
2018-07-08T10:32:13.908Z,7.30
2018-07-08T10:34:44.796Z,7.00
2018-07-08T10:37:15.265Z,6.33
2018-07-08T10:39:46.272Z,6.77
2018-07-08T10:42:17.069Z,6.83
2018-07-08T10:44:47.469Z,7.40
2018-07-08T10:47:17.916Z,7.40
2018-07-08T10:49:48.464Z,7.13
2018-07-08T10:52:18.796Z,7.10
2018-07-08T10:54:48.923Z,7.03
2018-07-08T10:57:19.199Z,6.70
2018-07-08T10:59:49.558Z,6.40
2018-07-08T11:02:19.858Z,6.70
2018-07-08T11:04:51.958Z,6.80
2018-07-08T11:07:22.500Z,7.20
2018-07-08T11:09:53.103Z,7.87
2018-07-08T11:12:24.003Z,7.17
2018-07-08T11:14:54.439Z,8.03
2018-07-08T11:17:24.530Z,6.80
2018-07-08T11:19:54.803Z,6.70
2018-07-08T11:22:25.174Z,6.43
2018-07-08T11:24:55.179Z,6.33
2018-07-08T11:27:25.538Z,6.37
2018-07-08T11:29:55.927Z,6.37
2018-07-08T11:32:26.154Z,6.83
2018-07-08T11:34:56.482Z,6.27
2018-07-08T11:37:26.685Z,6.60
2018-07-08T11:39:57.036Z,7.00
2018-07-08T11:42:27.472Z,6.00
2018-07-08T11:44:57.780Z,6.63
2018-07-08T11:47:28.079Z,6.27
2018-07-08T11:49:58.494Z,6.50
2018-07-08T11:52:28.821Z,7.03
2018-07-08T11:54:58.989Z,6.63
2018-07-08T11:57:29.228Z,6.53
2018-07-08T11:59:59.743Z,6.07
2018-07-08T12:02:30.169Z,6.27
2018-07-08T12:05:00.508Z,6.67
2018-07-08T12:07:30.730Z,6.60
2018-07-08T12:10:01.078Z,6.37
2018-07-08T12:12:31.193Z,6.70
2018-07-08T12:15:01.755Z,6.20
2018-07-08T12:17:32.066Z,6.27
2018-07-08T12:20:02.164Z,6.30
2018-07-08T12:22:32.424Z,6.60
2018-07-08T12:25:03.011Z,6.27
2018-07-08T12:27:33.389Z,6.97
2018-07-08T12:30:03.820Z,8.50
2018-07-08T12:32:33.892Z,6.83
2018-07-08T12:35:04.355Z,7.10
2018-07-08T12:37:35.233Z,6.40
2018-07-08T12:40:05.486Z,7.40
2018-07-08T12:42:35.707Z,7.23
2018-07-08T12:45:05.913Z,7.00
2018-07-08T12:47:36.113Z,7.07
2018-07-08T12:50:06.423Z,8.50
2018-07-08T12:52:36.704Z,9.07
2018-07-08T12:55:06.902Z,9.53
2018-07-08T12:57:37.108Z,7.17
2018-07-08T13:00:07.548Z,14.90
2018-07-08T13:02:37.826Z,6.90
2018-07-08T13:05:08.321Z,5.80
2018-07-08T13:07:38.648Z,12.40
2018-07-08T13:10:09.085Z,8.70
2018-07-08T13:12:39.219Z,9.17
2018-07-08T13:15:09.501Z,5.57
2018-07-08T13:17:39.773Z,6.27
2018-07-08T13:20:10.154Z,6.70
2018-07-08T13:22:40.399Z,5.07
2018-07-08T13:25:10.833Z,4.60
2018-07-08T13:27:41.278Z,4.77
2018-07-08T13:30:11.562Z,5.03
2018-07-08T13:34:22.388Z,4.80
2018-07-08T13:36:52.822Z,4.57
2018-07-08T13:39:24.092Z,8.23
2018-07-08T13:41:54.531Z,5.27
2018-07-08T13:44:25.021Z,4.70
2018-07-08T13:46:55.419Z,5.10
2018-07-08T13:49:25.965Z,3.83
2018-07-08T13:51:56.206Z,3.30
2018-07-08T13:54:26.886Z,4.13
2018-07-08T13:56:57.302Z,5.40
2018-07-08T13:59:28.396Z,3.67
2018-07-08T14:01:59.425Z,4.00
2018-07-08T14:04:30.242Z,5.10
2018-07-08T14:07:01.151Z,4.10
2018-07-08T14:09:32.756Z,4.37
2018-07-08T14:12:03.383Z,6.23
2018-07-08T14:14:35.275Z,4.50
2018-07-08T14:17:07.014Z,3.67
2018-07-08T14:19:39.179Z,4.03
2018-07-08T14:22:10.964Z,5.37
2018-07-08T14:24:42.062Z,4.60
2018-07-08T14:27:13.548Z,5.60
2018-07-08T14:29:45.567Z,5.07
2018-07-08T14:32:17.237Z,8.93
2018-07-08T14:34:48.616Z,5.43
2018-07-08T14:37:20.547Z,7.57
2018-07-08T14:39:52.227Z,6.07
2018-07-08T14:42:23.766Z,8.93
2018-07-08T14:44:56.163Z,10.27
2018-07-08T14:47:28.032Z,10.07
2018-07-08T14:49:59.734Z,11.47
2018-07-08T14:52:31.523Z,11.37
2018-07-08T14:55:03.237Z,11.60
2018-07-08T14:57:35.039Z,12.17
2018-07-08T15:00:07.527Z,13.30
2018-07-08T15:02:39.659Z,14.17
2018-07-08T15:05:11.286Z,14.77
2018-07-08T15:07:42.911Z,15.27
2018-07-08T15:10:14.496Z,16.23
2018-07-08T15:12:48.070Z,15.70
2018-07-08T15:15:19.570Z,15.30
2018-07-08T15:17:51.654Z,14.13
2018-07-08T15:20:23.027Z,11.60
2018-07-08T15:22:54.575Z,11.50
2018-07-08T15:25:25.846Z,11.67
2018-07-08T15:27:57.879Z,11.00
2018-07-08T15:30:29.175Z,13.30
2018-07-08T15:33:00.261Z,12.07
2018-07-08T15:35:31.965Z,11.20
2018-07-08T15:38:03.165Z,11.10
2018-07-08T15:40:35.164Z,10.23
2018-07-08T15:43:06.668Z,9.70
2018-07-08T15:45:38.276Z,9.10
2018-07-08T15:48:10.180Z,9.80
2018-07-08T15:50:41.592Z,9.27
2018-07-08T15:53:13.128Z,9.93
2018-07-08T15:55:44.287Z,10.57
2018-07-08T15:58:15.809Z,10.87
2018-07-08T16:00:47.836Z,10.33
2018-07-08T16:03:18.021Z,10.83
2018-07-08T16:05:48.978Z,11.20
2018-07-08T16:08:20.301Z,10.20
2018-07-08T16:10:51.302Z,8.73
2018-07-08T16:13:22.678Z,8.57
2018-07-08T16:15:53.720Z,8.53
2018-07-08T16:18:24.651Z,9.20
2018-07-08T16:20:55.124Z,8.57
2018-07-08T16:23:25.512Z,8.13
2018-07-08T16:25:57.806Z,7.97
2018-07-08T16:28:28.515Z,8.20
2018-07-08T16:30:58.846Z,8.30
2018-07-08T16:33:29.111Z,9.00
2018-07-08T16:35:59.688Z,9.60
2018-07-08T16:38:30.633Z,9.17
2018-07-08T16:41:01.450Z,9.50
2018-07-08T16:43:33.121Z,9.23
2018-07-08T16:46:04.264Z,9.40
2018-07-08T16:48:35.957Z,8.77
2018-07-08T16:51:06.890Z,9.23
2018-07-08T16:53:38.131Z,9.13
2018-07-08T16:56:09.361Z,9.83
2018-07-08T16:58:40.387Z,9.13
2018-07-08T17:01:11.829Z,8.70
2018-07-08T17:03:42.030Z,8.57
2018-07-08T17:06:12.593Z,9.17
2018-07-08T17:08:43.442Z,8.80
2018-07-08T17:11:14.351Z,9.20
2018-07-08T17:13:45.581Z,11.00
2018-07-08T17:16:16.844Z,10.23
2018-07-08T17:18:48.167Z,9.70
2018-07-08T17:21:19.142Z,9.97
2018-07-08T17:23:50.385Z,9.70
2018-07-08T17:26:21.494Z,9.60
2018-07-08T17:28:52.847Z,10.17
2018-07-08T17:31:23.810Z,10.13
2018-07-08T17:33:54.052Z,9.60
2018-07-08T17:36:24.352Z,10.27
2018-07-08T17:38:55.059Z,9.50
2018-07-08T17:41:25.590Z,9.50
2018-07-08T17:43:56.988Z,9.50
2018-07-08T17:46:27.902Z,12.10
2018-07-08T17:48:59.365Z,11.00
2018-07-08T17:51:29.954Z,9.53
2018-07-08T17:54:01.207Z,10.47
2018-07-08T17:56:33.849Z,9.50
2018-07-08T17:59:05.616Z,9.83
2018-07-08T18:01:36.793Z,9.73
2018-07-08T18:04:06.971Z,10.33
2018-07-08T18:06:37.761Z,10.50
2018-07-08T18:09:08.498Z,10.97
2018-07-08T18:11:38.781Z,11.73
2018-07-08T18:14:09.611Z,11.53
2018-07-08T18:16:39.904Z,10.80
2018-07-08T18:19:10.315Z,11.77
2018-07-08T18:21:40.887Z,13.27
2018-07-08T18:24:11.246Z,11.53
2018-07-08T18:26:42.011Z,10.20
2018-07-08T18:29:13.980Z,12.50
2018-07-08T18:31:44.953Z,10.57
2018-07-08T18:34:15.208Z,12.67
2018-07-08T18:36:46.459Z,9.90
2018-07-08T18:39:17.167Z,15.20
2018-07-08T18:41:48.342Z,11.20
2018-07-08T18:44:19.040Z,24.63
2018-07-08T18:46:49.271Z,19.93
2018-07-08T18:49:20.688Z,13.90
2018-07-08T18:51:53.832Z,13.10
2018-07-08T18:54:24.290Z,15.57
2018-07-08T18:56:54.502Z,12.03
2018-07-08T18:59:24.667Z,12.77
2018-07-08T19:01:55.452Z,12.47
2018-07-08T19:04:25.759Z,11.50
2018-07-08T19:06:57.021Z,11.33
2018-07-08T19:09:30.379Z,12.00
2018-07-08T19:12:01.258Z,13.40
2018-07-08T19:14:31.537Z,42.00
2018-07-08T19:17:06.053Z,12.70
2018-07-08T19:19:36.805Z,10.00
2018-07-08T19:22:07.243Z,10.20
2018-07-08T19:24:37.777Z,10.23
2018-07-08T19:27:07.978Z,10.77
2018-07-08T19:29:38.908Z,10.77
2018-07-08T19:32:10.792Z,11.83
2018-07-08T19:34:41.201Z,16.00
2018-07-08T19:37:12.308Z,11.00
2018-07-08T19:39:43.349Z,10.20
2018-07-08T19:42:13.628Z,10.10
2018-07-08T19:44:43.872Z,9.87
2018-07-08T19:47:14.205Z,9.53
2018-07-08T19:49:44.890Z,9.30
2018-07-08T19:52:15.244Z,11.00
2018-07-08T19:54:45.529Z,9.43
2018-07-08T19:57:16.139Z,10.80
2018-07-08T19:59:46.616Z,11.50
2018-07-08T20:02:16.790Z,11.53
2018-07-08T20:04:47.637Z,9.93
2018-07-08T20:07:18.024Z,9.80
2018-07-08T20:09:48.430Z,9.80
2018-07-08T20:12:18.688Z,9.37
2018-07-08T20:14:48.991Z,9.67
2018-07-08T20:17:19.704Z,12.50
2018-07-08T20:19:49.962Z,10.73
2018-07-08T20:22:20.434Z,8.97
2018-07-08T20:24:51.146Z,9.83
2018-07-08T20:27:21.573Z,9.27
2018-07-08T20:29:52.589Z,9.33
2018-07-08T20:32:23.121Z,8.70
2018-07-08T20:34:53.353Z,10.80
2018-07-08T20:37:23.751Z,8.00
2018-07-08T20:39:54.314Z,9.07
2018-07-08T20:42:24.507Z,8.53
2018-07-08T20:44:54.872Z,8.90
2018-07-08T20:47:25.756Z,9.43
2018-07-08T20:49:56.798Z,8.47
2018-07-08T20:52:29.353Z,9.57
2018-07-08T20:54:59.991Z,8.80
2018-07-08T20:57:30.124Z,12.20
2018-07-08T21:00:00.446Z,9.17
2018-07-08T21:02:30.747Z,8.57
2018-07-08T21:05:00.920Z,8.43
2018-07-08T21:07:31.212Z,9.17
2018-07-08T21:10:02.557Z,9.20
2018-07-08T21:12:33.904Z,11.03
2018-07-08T21:15:05.112Z,8.90
2018-07-08T21:17:35.528Z,8.77
2018-07-08T21:20:05.763Z,10.20
2018-07-08T21:22:36.691Z,9.03
2018-07-08T21:25:07.794Z,12.87
2018-07-08T21:27:38.017Z,14.33
2018-07-08T21:30:08.553Z,11.83
2018-07-08T21:32:39.011Z,21.73
2018-07-08T21:35:09.302Z,10.40
2018-07-08T21:37:39.491Z,13.47
2018-07-08T21:40:09.977Z,12.47
2018-07-08T21:42:41.508Z,12.50
2018-07-08T21:45:11.947Z,11.40
2018-07-08T21:47:43.119Z,10.60
2018-07-08T21:50:14.156Z,9.57
2018-07-08T21:52:45.366Z,13.10
2018-07-08T21:55:15.992Z,9.17
2018-07-08T21:57:47.564Z,9.77
2018-07-08T22:00:21.011Z,9.40
2018-07-08T22:02:52.495Z,10.00
2018-07-08T22:05:26.099Z,15.03
2018-07-08T22:08:05.521Z,10.10
2018-07-08T22:10:36.786Z,9.93
2018-07-08T22:13:08.251Z,10.73
2018-07-08T22:15:39.077Z,10.60
2018-07-08T22:18:10.529Z,14.57
2018-07-08T22:20:41.062Z,11.40
2018-07-08T22:23:13.019Z,11.93
2018-07-08T22:25:44.399Z,11.50
2018-07-08T22:28:15.499Z,10.10
2018-07-08T22:30:47.568Z,9.10
2018-07-08T22:33:19.249Z,14.53
2018-07-08T22:35:49.635Z,11.73
2018-07-08T22:38:20.880Z,13.23
2018-07-08T22:40:52.109Z,14.17
2018-07-08T22:43:22.976Z,13.53
2018-07-08T22:45:53.831Z,12.47
2018-07-08T22:48:25.064Z,13.87
2018-07-08T22:50:56.772Z,13.37
2018-07-08T22:53:27.891Z,13.60
2018-07-08T22:55:59.233Z,15.60
2018-07-08T22:58:30.564Z,13.60
2018-07-08T23:01:11.857Z,11.97
2018-07-08T23:03:48.429Z,12.10
2018-07-08T23:06:22.892Z,11.60
2018-07-08T23:08:54.174Z,15.00
2018-07-08T23:11:25.708Z,16.50
2018-07-08T23:13:57.851Z,13.93
2018-07-08T23:16:29.592Z,13.80
2018-07-08T23:19:01.767Z,14.07
2018-07-08T23:21:33.794Z,17.27
2018-07-08T23:24:05.322Z,12.67
2018-07-08T23:26:36.574Z,15.70
2018-07-08T23:29:07.911Z,13.23
2018-07-08T23:31:39.812Z,12.23
2018-07-08T23:34:11.201Z,18.47
2018-07-08T23:36:42.369Z,16.37
2018-07-08T23:39:13.724Z,18.63
2018-07-08T23:41:44.476Z,16.47
2018-07-08T23:44:15.741Z,15.47
2018-07-08T23:46:46.414Z,19.07
2018-07-08T23:49:16.800Z,14.80
2018-07-08T23:51:48.011Z,13.83
2018-07-08T23:54:19.389Z,14.13
2018-07-08T23:56:49.902Z,13.73
2018-07-08T23:59:21.625Z,16.20
